sensor_id;sensor_type;location;lat;lon;timestamp;pressure;altitude;pressure_sealevel;temperature;humidity
74045;BME280;62389;51.412;5.436;2023-12-28T00:01:08;100826.16;;;9.17;100.00
74045;BME280;62389;51.412;5.436;2023-12-28T00:03:33;100814.78;;;9.18;100.00
74045;BME280;62389;51.412;5.436;2023-12-28T00:05:59;100812.25;;;9.17;100.00
74045;BME280;62389;51.412;5.436;2023-12-28T00:08:24;100819.16;;;9.18;100.00
74045;BME280;62389;51.412;5.436;2023-12-28T00:10:49;100808.00;;;9.14;100.00
74045;BME280;62389;51.412;5.436;2023-12-28T00:13:15;100814.94;;;9.15;100.00
74045;BME280;62389;51.412;5.436;2023-12-28T00:15:40;100821.84;;;9.16;100.00
74045;BME280;62389;51.412;5.436;2023-12-28T00:18:06;100826.28;;;9.14;100.00
74045;BME280;62389;51.412;5.436;2023-12-28T00:20:31;100823.66;;;9.14;100.00
74045;BME280;62389;51.412;5.436;2023-12-28T00:22:56;100828.81;;;9.16;100.00
74045;BME280;62389;51.412;5.436;2023-12-28T00:25:23;100830.59;;;9.15;100.00
74045;BME280;62389;51.412;5.436;2023-12-28T00:27:48;100834.88;;;9.16;100.00
74045;BME280;62389;51.412;5.436;2023-12-28T00:30:14;100849.63;;;9.17;100.00
74045;BME280;62389;51.412;5.436;2023-12-28T00:32:39;100846.00;;;9.21;100.00
74045;BME280;62389;51.412;5.436;2023-12-28T00:35:09;100852.88;;;9.24;100.00
74045;BME280;62389;51.412;5.436;2023-12-28T00:37:34;100851.13;;;9.24;100.00
74045;BME280;62389;51.412;5.436;2023-12-28T00:39:59;100850.97;;;9.27;100.00
74045;BME280;62389;51.412;5.436;2023-12-28T00:42:25;100851.84;;;9.28;100.00
74045;BME280;62389;51.412;5.436;2023-12-28T00:44:50;100859.66;;;9.28;100.00
74045;BME280;62389;51.412;5.436;2023-12-28T00:47:15;100850.03;;;9.30;100.00
74045;BME280;62389;51.412;5.436;2023-12-28T00:49:41;100859.63;;;9.29;100.00
74045;BME280;62389;51.412;5.436;2023-12-28T00:52:06;100858.81;;;9.27;100.00
74045;BME280;62389;51.412;5.436;2023-12-28T00:54:31;100857.13;;;9.26;100.00
74045;BME280;62389;51.412;5.436;2023-12-28T00:56:57;100867.50;;;9.28;100.00
74045;BME280;62389;51.412;5.436;2023-12-28T00:59:22;100852.69;;;9.28;100.00
74045;BME280;62389;51.412;5.436;2023-12-28T01:01:47;100864.84;;;9.29;100.00
74045;BME280;62389;51.412;5.436;2023-12-28T01:04:13;100863.00;;;9.31;100.00
74045;BME280;62389;51.412;5.436;2023-12-28T01:06:38;100864.72;;;9.32;100.00
74045;BME280;62389;51.412;5.436;2023-12-28T01:09:03;100867.31;;;9.32;100.00
74045;BME280;62389;51.412;5.436;2023-12-28T01:11:31;100870.69;;;9.36;100.00
74045;BME280;62389;51.412;5.436;2023-12-28T01:13:56;100869.59;;;9.42;100.00
74045;BME280;62389;51.412;5.436;2023-12-28T01:16:23;100869.47;;;9.45;100.00
74045;BME280;62389;51.412;5.436;2023-12-28T01:18:48;100876.47;;;9.44;100.00
74045;BME280;62389;51.412;5.436;2023-12-28T01:21:13;100865.94;;;9.46;100.00
74045;BME280;62389;51.412;5.436;2023-12-28T01:23:39;100879.84;;;9.46;100.00
74045;BME280;62389;51.412;5.436;2023-12-28T01:26:04;100883.31;;;9.47;100.00
74045;BME280;62389;51.412;5.436;2023-12-28T01:28:29;100883.31;;;9.47;100.00
74045;BME280;62389;51.412;5.436;2023-12-28T01:30:55;100890.31;;;9.46;100.00
74045;BME280;62389;51.412;5.436;2023-12-28T01:33:20;100887.63;;;9.48;100.00
74045;BME280;62389;51.412;5.436;2023-12-28T01:35:45;100878.09;;;9.47;100.00
74045;BME280;62389;51.412;5.436;2023-12-28T01:38:11;100881.69;;;9.44;100.00
74045;BME280;62389;51.412;5.436;2023-12-28T01:40:36;100887.75;;;9.45;100.00
74045;BME280;62389;51.412;5.436;2023-12-28T01:43:02;100898.19;;;9.45;100.00
74045;BME280;62389;51.412;5.436;2023-12-28T01:45:27;100890.22;;;9.48;100.00
74045;BME280;62389;51.412;5.436;2023-12-28T01:47:53;100899.81;;;9.47;100.00
74045;BME280;62389;51.412;5.436;2023-12-28T01:50:23;100892.91;;;9.46;100.00
74045;BME280;62389;51.412;5.436;2023-12-28T01:52:50;100891.31;;;9.42;100.00
74045;BME280;62389;51.412;5.436;2023-12-28T01:55:16;100892.16;;;9.43;100.00
74045;BME280;62389;51.412;5.436;2023-12-28T01:57:42;100900.91;;;9.42;100.00
74045;BME280;62389;51.412;5.436;2023-12-28T02:00:08;100903.59;;;9.40;100.00
74045;BME280;62389;51.412;5.436;2023-12-28T02:02:34;100917.50;;;9.41;100.00
74045;BME280;62389;51.412;5.436;2023-12-28T02:05:01;100931.31;;;9.43;100.00
74045;BME280;62389;51.412;5.436;2023-12-28T02:07:27;100900.91;;;9.42;100.00
74045;BME280;62389;51.412;5.436;2023-12-28T02:09:53;100906.19;;;9.40;100.00
74045;BME280;62389;51.412;5.436;2023-12-28T02:12:18;100913.19;;;9.40;100.00
74045;BME280;62389;51.412;5.436;2023-12-28T02:14:44;100899.31;;;9.38;100.00
74045;BME280;62389;51.412;5.436;2023-12-28T02:17:28;100893.25;;;9.37;100.00
74045;BME280;62389;51.412;5.436;2023-12-28T02:19:56;100902.91;;;9.35;100.00
74045;BME280;62389;51.412;5.436;2023-12-28T02:22:27;100904.69;;;9.34;100.00
74045;BME280;62389;51.412;5.436;2023-12-28T02:27:21;100905.75;;;9.29;100.00
74045;BME280;62389;51.412;5.436;2023-12-28T02:29:47;100920.53;;;9.28;100.00
74045;BME280;62389;51.412;5.436;2023-12-28T02:32:12;100907.56;;;9.27;100.00
74045;BME280;62389;51.412;5.436;2023-12-28T02:34:42;100907.63;;;9.25;100.00
74045;BME280;62389;51.412;5.436;2023-12-28T02:37:12;100913.00;;;9.21;100.00
74045;BME280;62389;51.412;5.436;2023-12-28T02:39:43;100920.78;;;9.22;100.00
74045;BME280;62389;51.412;5.436;2023-12-28T02:42:11;100911.09;;;9.26;100.00
74045;BME280;62389;51.412;5.436;2023-12-28T02:44:37;100915.44;;;9.25;100.00
74045;BME280;62389;51.412;5.436;2023-12-28T02:47:02;100917.25;;;9.23;100.00
74045;BME280;62389;51.412;5.436;2023-12-28T02:49:28;100912.03;;;9.23;100.00
74045;BME280;62389;51.412;5.436;2023-12-28T02:51:53;100901.72;;;9.20;100.00
74045;BME280;62389;51.412;5.436;2023-12-28T02:54:18;100906.94;;;9.20;100.00
74045;BME280;62389;51.412;5.436;2023-12-28T02:56:44;100892.22;;;9.18;100.00
74045;BME280;62389;51.412;5.436;2023-12-28T02:59:09;100906.25;;;9.15;100.00
74045;BME280;62389;51.412;5.436;2023-12-28T03:01:34;100901.03;;;9.15;100.00
74045;BME280;62389;51.412;5.436;2023-12-28T03:04:00;100893.22;;;9.15;100.00
74045;BME280;62389;51.412;5.436;2023-12-28T03:06:25;100900.22;;;9.13;100.00
74045;BME280;62389;51.412;5.436;2023-12-28T03:08:50;100905.44;;;9.13;100.00
74045;BME280;62389;51.412;5.436;2023-12-28T03:11:16;100900.97;;;9.17;100.00
74045;BME280;62389;51.412;5.436;2023-12-28T03:13:41;100907.19;;;9.14;100.00
74045;BME280;62389;51.412;5.436;2023-12-28T03:16:07;100899.34;;;9.14;100.00
74045;BME280;62389;51.412;5.436;2023-12-28T03:18:32;100889.00;;;9.11;100.00
74045;BME280;62389;51.412;5.436;2023-12-28T03:20:57;100897.75;;;9.10;100.00
74045;BME280;62389;51.412;5.436;2023-12-28T03:23:23;100901.28;;;9.09;100.00
74045;BME280;62389;51.412;5.436;2023-12-28T03:25:48;100898.66;;;9.09;100.00
74045;BME280;62389;51.412;5.436;2023-12-28T03:28:13;100884.81;;;9.07;100.00
74045;BME280;62389;51.412;5.436;2023-12-28T03:30:39;100893.53;;;9.06;100.00
74045;BME280;62389;51.412;5.436;2023-12-28T03:33:04;100888.44;;;9.03;100.00
74045;BME280;62389;51.412;5.436;2023-12-28T03:35:29;100905.06;;;9.00;100.00
74045;BME280;62389;51.412;5.436;2023-12-28T03:37:55;100906.84;;;8.98;100.00
74045;BME280;62389;51.412;5.436;2023-12-28T03:40:20;100909.53;;;8.97;100.00
74045;BME280;62389;51.412;5.436;2023-12-28T03:42:45;100906.00;;;8.98;100.00
74045;BME280;62389;51.412;5.436;2023-12-28T03:45:11;100900.00;;;8.96;100.00
74045;BME280;62389;51.412;5.436;2023-12-28T03:47:37;100901.69;;;8.97;100.00
74045;BME280;62389;51.412;5.436;2023-12-28T03:50:02;100894.72;;;8.97;100.00
74045;BME280;62389;51.412;5.436;2023-12-28T03:52:28;100899.91;;;8.99;100.00
74045;BME280;62389;51.412;5.436;2023-12-28T03:54:57;100911.22;;;8.98;100.00
74045;BME280;62389;51.412;5.436;2023-12-28T03:57:22;100911.22;;;8.98;100.00
74045;BME280;62389;51.412;5.436;2023-12-28T03:59:48;100921.66;;;8.98;100.00
74045;BME280;62389;51.412;5.436;2023-12-28T04:02:13;100909.47;;;8.98;100.00
74045;BME280;62389;51.412;5.436;2023-12-28T04:04:39;100906.84;;;8.98;100.00
74045;BME280;62389;51.412;5.436;2023-12-28T04:07:04;100906.84;;;8.98;100.00
74045;BME280;62389;51.412;5.436;2023-12-28T04:09:32;100921.56;;;9.01;100.00
74045;BME280;62389;51.412;5.436;2023-12-28T04:11:58;100917.13;;;9.03;100.00
74045;BME280;62389;51.412;5.436;2023-12-28T04:14:23;100915.25;;;9.06;100.00
74045;BME280;62389;51.412;5.436;2023-12-28T04:16:48;100924.63;;;9.12;100.00
74045;BME280;62389;51.412;5.436;2023-12-28T04:19:14;100933.28;;;9.14;100.00
74045;BME280;62389;51.412;5.436;2023-12-28T04:21:43;100926.22;;;9.16;100.00
74045;BME280;62389;51.412;5.436;2023-12-28T04:24:08;100921.00;;;9.16;100.00
74045;BME280;62389;51.412;5.436;2023-12-28T04:26:34;100913.97;;;9.18;100.00
74045;BME280;62389;51.412;5.436;2023-12-28T04:28:59;100923.53;;;9.18;100.00
74045;BME280;62389;51.412;5.436;2023-12-28T04:31:25;100901.78;;;9.19;100.00
74045;BME280;62389;51.412;5.436;2023-12-28T04:33:50;100912.94;;;9.22;100.00
74045;BME280;62389;51.412;5.436;2023-12-28T04:36:16;100909.41;;;9.23;100.00
74045;BME280;62389;51.412;5.436;2023-12-28T04:38:41;100912.78;;;9.27;100.00
74045;BME280;62389;51.412;5.436;2023-12-28T04:41:09;100906.59;;;9.29;100.00
74045;BME280;62389;51.412;5.436;2023-12-28T04:43:34;100892.66;;;9.30;100.00
74045;BME280;62389;51.412;5.436;2023-12-28T04:46:04;100900.34;;;9.33;100.00
74045;BME280;62389;51.412;5.436;2023-12-28T04:48:30;100901.16;;;9.36;100.00
74045;BME280;62389;51.412;5.436;2023-12-28T04:50:55;100903.63;;;9.39;100.00
74045;BME280;62389;51.412;5.436;2023-12-28T04:53:20;100921.91;;;9.39;100.00
74045;BME280;62389;51.412;5.436;2023-12-28T04:55:46;100902.50;;;9.46;100.00
74045;BME280;62389;51.412;5.436;2023-12-28T04:58:11;100902.41;;;9.49;100.00
74045;BME280;62389;51.412;5.436;2023-12-28T05:00:39;100918.78;;;9.52;100.00
74045;BME280;62389;51.412;5.436;2023-12-28T05:03:05;100919.53;;;9.56;100.00
74045;BME280;62389;51.412;5.436;2023-12-28T05:05:31;100922.06;;;9.57;100.00
74045;BME280;62389;51.412;5.436;2023-12-28T05:07:57;100924.44;;;9.64;100.00
74045;BME280;62389;51.412;5.436;2023-12-28T05:10:22;100913.88;;;9.67;100.00
74045;BME280;62389;51.412;5.436;2023-12-28T05:12:47;100933.63;;;9.74;100.00
74045;BME280;62389;51.412;5.436;2023-12-28T05:15:13;100936.03;;;9.80;100.00
74045;BME280;62389;51.412;5.436;2023-12-28T05:17:38;100940.44;;;9.78;100.00
74045;BME280;62389;51.412;5.436;2023-12-28T05:20:04;100939.53;;;9.79;100.00
74045;BME280;62389;51.412;5.436;2023-12-28T05:22:29;100948.91;;;9.84;99.39
74045;BME280;62389;51.412;5.436;2023-12-28T05:24:55;100942.63;;;9.89;99.05
74045;BME280;62389;51.412;5.436;2023-12-28T05:27:20;100932.16;;;9.89;98.57
74045;BME280;62389;51.412;5.436;2023-12-28T05:29:45;100913.00;;;9.90;98.13
74045;BME280;62389;51.412;5.436;2023-12-28T05:32:11;100920.03;;;9.88;98.65
74045;BME280;62389;51.412;5.436;2023-12-28T05:34:36;100908.88;;;9.84;97.55
74045;BME280;62389;51.412;5.436;2023-12-28T05:37:02;100902.91;;;9.80;97.97
74045;BME280;62389;51.412;5.436;2023-12-28T05:39:27;100914.38;;;9.76;98.05
74045;BME280;62389;51.412;5.436;2023-12-28T05:41:52;100920.56;;;9.74;98.44
74045;BME280;62389;51.412;5.436;2023-12-28T05:44:18;100911.28;;;9.67;98.89
74045;BME280;62389;51.412;5.436;2023-12-28T05:46:43;100919.09;;;9.67;99.47
74045;BME280;62389;51.412;5.436;2023-12-28T05:49:08;100925.34;;;9.63;99.79
74045;BME280;62389;51.412;5.436;2023-12-28T05:51:40;100928.94;;;9.60;99.35
74045;BME280;62389;51.412;5.436;2023-12-28T05:54:07;100938.47;;;9.61;99.65
74045;BME280;62389;51.412;5.436;2023-12-28T05:56:33;100930.41;;;9.67;99.25
74045;BME280;62389;51.412;5.436;2023-12-28T05:58:58;100920.03;;;9.66;99.80
74045;BME280;62389;51.412;5.436;2023-12-28T06:01:24;100926.94;;;9.67;99.58
74045;BME280;62389;51.412;5.436;2023-12-28T06:03:49;100930.47;;;9.66;99.91
74045;BME280;62389;51.412;5.436;2023-12-28T06:06:17;100928.81;;;9.63;99.96
74045;BME280;62389;51.412;5.436;2023-12-28T06:08:43;100927.97;;;9.63;99.54
74045;BME280;62389;51.412;5.436;2023-12-28T06:11:08;100938.47;;;9.61;99.81
74045;BME280;62389;51.412;5.436;2023-12-28T06:13:34;100939.38;;;9.60;99.34
74045;BME280;62389;51.412;5.436;2023-12-28T06:15:59;100919.28;;;9.62;98.67
74045;BME280;62389;51.412;5.436;2023-12-28T06:18:24;100941.09;;;9.61;99.57
74045;BME280;62389;51.412;5.436;2023-12-28T06:20:50;100942.00;;;9.60;99.49
74045;BME280;62389;51.412;5.436;2023-12-28T06:23:15;100945.53;;;9.59;99.33
74045;BME280;62389;51.412;5.436;2023-12-28T06:25:40;100949.94;;;9.57;99.68
74045;BME280;62389;51.412;5.436;2023-12-28T06:28:06;100949.88;;;9.58;99.43
74045;BME280;62389;51.412;5.436;2023-12-28T06:30:31;100941.31;;;9.55;99.71
74045;BME280;62389;51.412;5.436;2023-12-28T06:32:56;100948.25;;;9.56;99.68
74045;BME280;62389;51.412;5.436;2023-12-28T06:35:22;100953.53;;;9.54;99.23
74045;BME280;62389;51.412;5.436;2023-12-28T06:37:47;100961.31;;;9.56;100.00
74045;BME280;62389;51.412;5.436;2023-12-28T06:40:12;100953.38;;;9.59;99.08
74045;BME280;62389;51.412;5.436;2023-12-28T06:42:38;100961.97;;;9.61;99.68
74045;BME280;62389;51.412;5.436;2023-12-28T06:45:04;100959.38;;;9.61;99.43
74045;BME280;62389;51.412;5.436;2023-12-28T06:47:29;100955.06;;;9.60;99.93
74045;BME280;62389;51.412;5.436;2023-12-28T06:49:54;100962.91;;;9.60;98.99
74045;BME280;62389;51.412;5.436;2023-12-28T06:52:20;100946.31;;;9.61;99.02
74045;BME280;62389;51.412;5.436;2023-12-28T06:54:45;100955.84;;;9.62;98.70
74045;BME280;62389;51.412;5.436;2023-12-28T06:57:11;100968.13;;;9.60;98.62
74045;BME280;62389;51.412;5.436;2023-12-28T06:59:36;100971.41;;;9.65;98.83
74045;BME280;62389;51.412;5.436;2023-12-28T07:02:01;100961.81;;;9.66;98.82
74045;BME280;62389;51.412;5.436;2023-12-28T07:04:27;100964.50;;;9.64;99.15
74045;BME280;62389;51.412;5.436;2023-12-28T07:06:55;100965.53;;;9.58;99.34
74045;BME280;62389;51.412;5.436;2023-12-28T07:09:20;100959.53;;;9.56;99.63
74045;BME280;62389;51.412;5.436;2023-12-28T07:11:45;100964.09;;;9.51;100.00
74045;BME280;62389;51.412;5.436;2023-12-28T07:14:11;100965.91;;;9.49;100.00
74045;BME280;62389;51.412;5.436;2023-12-28T07:16:36;100972.81;;;9.50;99.89
74045;BME280;62389;51.412;5.436;2023-12-28T07:19:01;100984.88;;;9.54;99.82
74045;BME280;62389;51.412;5.436;2023-12-28T07:21:28;100971.97;;;9.50;99.67
74045;BME280;62389;51.412;5.436;2023-12-28T07:23:54;100977.19;;;9.50;100.00
74045;BME280;62389;51.412;5.436;2023-12-28T07:26:19;100981.56;;;9.49;100.00
74045;BME280;62389;51.412;5.436;2023-12-28T07:28:44;100979.00;;;9.48;100.00
74045;BME280;62389;51.412;5.436;2023-12-28T07:31:22;100980.94;;;9.43;100.00
74045;BME280;62389;51.412;5.436;2023-12-28T07:33:48;100986.28;;;9.40;100.00
74045;BME280;62389;51.412;5.436;2023-12-28T07:36:13;100994.22;;;9.37;100.00
74045;BME280;62389;51.412;5.436;2023-12-28T07:38:38;101000.44;;;9.32;100.00
74045;BME280;62389;51.412;5.436;2023-12-28T07:41:04;101006.56;;;9.31;100.00
74045;BME280;62389;51.412;5.436;2023-12-28T07:43:29;101006.50;;;9.33;100.00
74045;BME280;62389;51.412;5.436;2023-12-28T07:45:54;101013.50;;;9.32;100.00
74045;BME280;62389;51.412;5.436;2023-12-28T07:48:20;101011.78;;;9.31;100.00
74045;BME280;62389;51.412;5.436;2023-12-28T07:50:45;101003.88;;;9.34;100.00
74045;BME280;62389;51.412;5.436;2023-12-28T07:53:11;101013.41;;;9.36;100.00
74045;BME280;62389;51.412;5.436;2023-12-28T07:55:36;101028.16;;;9.37;100.00
74045;BME280;62389;51.412;5.436;2023-12-28T07:58:02;101012.50;;;9.37;100.00
74045;BME280;62389;51.412;5.436;2023-12-28T08:00:27;101027.31;;;9.36;100.00
74045;BME280;62389;51.412;5.436;2023-12-28T08:02:52;101032.53;;;9.36;100.00
74045;BME280;62389;51.412;5.436;2023-12-28T08:05:18;101029.00;;;9.37;100.00
74045;BME280;62389;51.412;5.436;2023-12-28T08:07:43;101032.41;;;9.39;100.00
74045;BME280;62389;51.412;5.436;2023-12-28T08:10:09;101030.69;;;9.38;100.00
74045;BME280;62389;51.412;5.436;2023-12-28T08:12:34;101033.22;;;9.41;100.00
74045;BME280;62389;51.412;5.436;2023-12-28T08:14:59;101034.06;;;9.42;100.00
74045;BME280;62389;51.412;5.436;2023-12-28T08:17:25;101039.22;;;9.43;100.00
74045;BME280;62389;51.412;5.436;2023-12-28T08:19:50;101038.38;;;9.43;100.00
74045;BME280;62389;51.412;5.436;2023-12-28T08:22:16;101043.56;;;9.44;100.00
74045;BME280;62389;51.412;5.436;2023-12-28T08:24:42;101030.44;;;9.46;100.00
74045;BME280;62389;51.412;5.436;2023-12-28T08:27:07;101027.59;;;9.52;100.00
74045;BME280;62389;51.412;5.436;2023-12-28T08:29:32;101026.81;;;9.50;100.00
74045;BME280;62389;51.412;5.436;2023-12-28T08:31:58;101017.97;;;9.54;99.91
74045;BME280;62389;51.412;5.436;2023-12-28T08:34:23;101014.44;;;9.55;99.74
74045;BME280;62389;51.412;5.436;2023-12-28T08:36:49;101031.75;;;9.57;100.00
74045;BME280;62389;51.412;5.436;2023-12-28T08:39:14;101025.56;;;9.60;100.00
74045;BME280;62389;51.412;5.436;2023-12-28T08:41:39;101042.88;;;9.63;99.94
74045;BME280;62389;51.412;5.436;2023-12-28T08:44:05;101028.88;;;9.65;100.00
74045;BME280;62389;51.412;5.436;2023-12-28T08:46:30;101028.72;;;9.68;99.67
74045;BME280;62389;51.412;5.436;2023-12-28T08:48:56;101026.94;;;9.70;99.55
74045;BME280;62389;51.412;5.436;2023-12-28T08:51:21;101044.19;;;9.74;100.00
74045;BME280;62389;51.412;5.436;2023-12-28T08:53:47;101045.91;;;9.75;99.10
74045;BME280;62389;51.412;5.436;2023-12-28T08:56:16;101031.06;;;9.76;99.76
74045;BME280;62389;51.412;5.436;2023-12-28T08:58:43;101051.91;;;9.77;99.93
74045;BME280;62389;51.412;5.436;2023-12-28T09:01:08;101052.81;;;9.76;99.61
74045;BME280;62389;51.412;5.436;2023-12-28T09:03:34;101047.53;;;9.78;99.12
74045;BME280;62389;51.412;5.436;2023-12-28T09:05:59;101070.94;;;9.81;100.00
74045;BME280;62389;51.412;5.436;2023-12-28T09:08:25;101078.72;;;9.82;99.50
74045;BME280;62389;51.412;5.436;2023-12-28T09:10:50;101075.19;;;9.83;99.02
74045;BME280;62389;51.412;5.436;2023-12-28T09:13:16;101070.03;;;9.82;99.29
74045;BME280;62389;51.412;5.436;2023-12-28T09:15:42;101085.78;;;9.80;97.67
74045;BME280;62389;51.412;5.436;2023-12-28T09:18:07;101101.44;;;9.80;98.51
74045;BME280;62389;51.412;5.436;2023-12-28T09:20:33;101094.44;;;9.81;98.36
74045;BME280;62389;51.412;5.436;2023-12-28T09:23:00;101099.63;;;9.82;98.86
74045;BME280;62389;51.412;5.436;2023-12-28T09:25:25;101098.81;;;9.80;99.56
74045;BME280;62389;51.412;5.436;2023-12-28T09:27:51;101102.38;;;9.78;99.66
74045;BME280;62389;51.412;5.436;2023-12-28T09:30:17;101088.53;;;9.76;99.58
74045;BME280;62389;51.412;5.436;2023-12-28T09:32:43;101090.25;;;9.77;100.00
74045;BME280;62389;51.412;5.436;2023-12-28T09:35:08;101085.78;;;9.80;99.79
74045;BME280;62389;51.412;5.436;2023-12-28T09:37:33;101097.13;;;9.79;100.00
74045;BME280;62389;51.412;5.436;2023-12-28T09:39:59;101097.91;;;9.81;100.00
74045;BME280;62389;51.412;5.436;2023-12-28T09:42:32;101097.91;;;9.81;99.42
74045;BME280;62389;51.412;5.436;2023-12-28T09:45:01;101108.38;;;9.81;99.79
74045;BME280;62389;51.412;5.436;2023-12-28T09:47:26;101102.34;;;9.79;100.00
74045;BME280;62389;51.412;5.436;2023-12-28T09:49:52;101108.38;;;9.81;100.00
74045;BME280;62389;51.412;5.436;2023-12-28T09:52:17;101113.69;;;9.78;100.00
74045;BME280;62389;51.412;5.436;2023-12-28T09:54:42;101118.13;;;9.76;100.00
74045;BME280;62389;51.412;5.436;2023-12-28T09:57:09;101114.59;;;9.77;100.00
74045;BME280;62389;51.412;5.436;2023-12-28T09:59:34;101112.13;;;9.74;100.00
74045;BME280;62389;51.412;5.436;2023-12-28T10:02:00;101108.63;;;9.74;100.00
74045;BME280;62389;51.412;5.436;2023-12-28T10:04:28;101115.59;;;9.73;100.00
74045;BME280;62389;51.412;5.436;2023-12-28T10:06:54;101140.88;;;9.73;100.00
74045;BME280;62389;51.412;5.436;2023-12-28T10:09:20;101133.00;;;9.74;100.00
74045;BME280;62389;51.412;5.436;2023-12-28T10:11:45;101134.81;;;9.72;100.00
74045;BME280;62389;51.412;5.436;2023-12-28T10:14:11;101143.56;;;9.71;100.00
74045;BME280;62389;51.412;5.436;2023-12-28T10:16:40;101134.88;;;9.71;100.00
74045;BME280;62389;51.412;5.436;2023-12-28T10:19:06;101121.75;;;9.72;100.00
74045;BME280;62389;51.412;5.436;2023-12-28T10:21:31;101124.25;;;9.75;100.00
74045;BME280;62389;51.412;5.436;2023-12-28T10:23:57;101125.03;;;9.79;100.00
74045;BME280;62389;51.412;5.436;2023-12-28T10:26:23;101127.56;;;9.80;100.00
74045;BME280;62389;51.412;5.436;2023-12-28T10:28:49;101124.09;;;9.80;100.00
74045;BME280;62389;51.412;5.436;2023-12-28T10:31:14;101126.72;;;9.80;100.00
74045;BME280;62389;51.412;5.436;2023-12-28T10:33:40;101118.81;;;9.81;100.00
74045;BME280;62389;51.412;5.436;2023-12-28T10:36:07;101112.66;;;9.84;100.00
74045;BME280;62389;51.412;5.436;2023-12-28T10:38:37;101113.50;;;9.84;100.00
74045;BME280;62389;51.412;5.436;2023-12-28T10:41:08;101114.22;;;9.88;100.00
74045;BME280;62389;51.412;5.436;2023-12-28T10:44:10;101118.34;;;9.94;99.80
74045;BME280;62389;51.412;5.436;2023-12-28T10:46:40;101106.88;;;9.98;98.82
74045;BME280;62389;51.412;5.436;2023-12-28T10:49:12;101114.63;;;10.01;98.57
74045;BME280;62389;51.412;5.436;2023-12-28T10:51:42;101109.34;;;10.02;97.62
74045;BME280;62389;51.412;5.436;2023-12-28T10:56:56;101115.19;;;10.09;99.10
74045;BME280;62389;51.412;5.436;2023-12-28T10:59:51;101104.44;;;10.17;98.91
74045;BME280;62389;51.412;5.436;2023-12-28T11:02:21;101079.16;;;10.17;97.89
74045;BME280;62389;51.412;5.436;2023-12-28T11:04:50;101090.47;;;10.18;97.01
74045;BME280;62389;51.412;5.436;2023-12-28T11:07:18;101103.38;;;10.22;96.71
74045;BME280;62389;51.412;5.436;2023-12-28T11:09:43;101099.75;;;10.26;95.77
74045;BME280;62389;51.412;5.436;2023-12-28T11:12:09;101084.91;;;10.27;95.06
74045;BME280;62389;51.412;5.436;2023-12-28T11:14:41;101087.44;;;10.30;96.01
74045;BME280;62389;51.412;5.436;2023-12-28T11:17:09;101076.78;;;10.34;94.45
74045;BME280;62389;51.412;5.436;2023-12-28T11:19:35;101095.97;;;10.33;94.38
74045;BME280;62389;51.412;5.436;2023-12-28T11:22:04;101092.59;;;10.31;94.88
74045;BME280;62389;51.412;5.436;2023-12-28T11:24:31;101092.59;;;10.31;95.15
74045;BME280;62389;51.412;5.436;2023-12-28T11:26:57;101100.44;;;10.31;95.29
74045;BME280;62389;51.412;5.436;2023-12-28T11:29:23;101099.59;;;10.31;95.25
74045;BME280;62389;51.412;5.436;2023-12-28T11:31:57;101093.53;;;10.29;95.48
74045;BME280;62389;51.412;5.436;2023-12-28T11:34:29;101082.38;;;10.25;95.51
74045;BME280;62389;51.412;5.436;2023-12-28T11:36:56;101085.00;;;10.25;95.51
74045;BME280;62389;51.412;5.436;2023-12-28T11:39:30;101072.69;;;10.27;95.35
74045;BME280;62389;51.412;5.436;2023-12-28T11:42:05;101078.84;;;10.26;95.24
74045;BME280;62389;51.412;5.436;2023-12-28T11:44:41;101057.69;;;10.32;95.46
74045;BME280;62389;51.412;5.436;2023-12-28T11:47:16;101067.47;;;10.27;95.04
74045;BME280;62389;51.412;5.436;2023-12-28T11:49:42;101062.16;;;10.29;94.86
74045;BME280;62389;51.412;5.436;2023-12-28T11:52:10;101058.72;;;10.28;95.64
74045;BME280;62389;51.412;5.436;2023-12-28T11:54:49;101047.38;;;10.29;95.20
74045;BME280;62389;51.412;5.436;2023-12-28T11:57:15;101055.22;;;10.29;96.36
74045;BME280;62389;51.412;5.436;2023-12-28T11:59:41;101050.75;;;10.31;95.65
74045;BME280;62389;51.412;5.436;2023-12-28T12:02:06;101050.75;;;10.31;95.08
74045;BME280;62389;51.412;5.436;2023-12-28T12:04:34;101056.22;;;10.25;95.03
74045;BME280;62389;51.412;5.436;2023-12-28T12:07:03;101063.22;;;10.25;95.78
74045;BME280;62389;51.412;5.436;2023-12-28T12:09:29;101063.94;;;10.28;95.71
74045;BME280;62389;51.412;5.436;2023-12-28T12:11:57;101060.47;;;10.28;95.36
74045;BME280;62389;51.412;5.436;2023-12-28T12:14:23;101056.22;;;10.25;95.33
74045;BME280;62389;51.412;5.436;2023-12-28T12:16:48;101039.63;;;10.26;96.15
74045;BME280;62389;51.412;5.436;2023-12-28T12:19:15;101039.63;;;10.26;95.79
74045;BME280;62389;51.412;5.436;2023-12-28T12:21:40;101030.09;;;10.25;95.59
74045;BME280;62389;51.412;5.436;2023-12-28T12:24:06;101031.69;;;10.29;96.01
74045;BME280;62389;51.412;5.436;2023-12-28T12:26:31;101031.72;;;10.28;95.94
74045;BME280;62389;51.412;5.436;2023-12-28T12:28:57;101036.00;;;10.30;96.19
74045;BME280;62389;51.412;5.436;2023-12-28T12:31:24;101019.38;;;10.31;96.11
74045;BME280;62389;51.412;5.436;2023-12-28T12:33:49;101019.31;;;10.33;96.15
74045;BME280;62389;51.412;5.436;2023-12-28T12:36:16;101017.63;;;10.32;95.42
74045;BME280;62389;51.412;5.436;2023-12-28T12:38:41;101008.94;;;10.31;95.42
74045;BME280;62389;51.412;5.436;2023-12-28T12:41:07;101020.22;;;10.32;96.67
74045;BME280;62389;51.412;5.436;2023-12-28T12:43:33;101026.31;;;10.32;96.57
74045;BME280;62389;51.412;5.436;2023-12-28T12:45:59;101015.06;;;10.30;96.02
74045;BME280;62389;51.412;5.436;2023-12-28T12:48:25;101015.06;;;10.30;96.01
74045;BME280;62389;51.412;5.436;2023-12-28T12:50:51;101016.00;;;10.29;97.06
74045;BME280;62389;51.412;5.436;2023-12-28T12:53:16;101025.53;;;10.30;96.99